createdAt,value
2019-01-23T00:01:32.829Z,51.10
2019-01-23T00:04:07.182Z,42.40
2019-01-23T00:06:36.246Z,44.10
2019-01-23T00:16:59.257Z,48.10
2019-01-23T00:17:57.343Z,46.03
2019-01-23T00:20:26.239Z,42.43
2019-01-23T00:23:02.556Z,45.20
2019-01-23T00:25:34.665Z,41.23
2019-01-23T00:28:07.619Z,42.33
2019-01-23T00:37:12.311Z,46.60
2019-01-23T00:39:41.109Z,43.33
2019-01-23T00:42:09.899Z,45.03
2019-01-23T00:44:41.561Z,50.60
2019-01-23T00:47:10.536Z,47.23
2019-01-23T00:49:39.531Z,54.33
2019-01-23T00:52:08.331Z,46.20
2019-01-23T00:54:37.304Z,44.53
2019-01-23T00:57:06.152Z,44.13
2019-01-23T00:59:34.956Z,43.40
2019-01-23T01:02:04.397Z,43.03
2019-01-23T01:04:33.203Z,40.57
2019-01-23T01:07:02.104Z,46.53
2019-01-23T01:09:30.973Z,39.10
2019-01-23T01:11:59.889Z,39.77
2019-01-23T01:14:28.881Z,38.90
2019-01-23T01:16:57.872Z,41.57
2019-01-23T01:19:26.832Z,44.63
2019-01-23T01:21:55.716Z,43.23
2019-01-23T01:24:24.614Z,41.03
2019-01-23T01:26:53.494Z,40.93
2019-01-23T01:29:22.287Z,39.33
2019-01-23T01:31:51.068Z,43.73
2019-01-23T01:34:19.863Z,36.27
2019-01-23T01:36:50.414Z,37.33
2019-01-23T01:39:19.305Z,38.13
2019-01-23T01:41:48.130Z,40.57
2019-01-23T01:44:17.087Z,37.73
2019-01-23T01:46:45.873Z,38.17
2019-01-23T01:49:14.643Z,39.90
2019-01-23T01:51:43.511Z,41.00
2019-01-23T01:54:13.801Z,37.90
2019-01-23T01:56:42.695Z,35.30
2019-01-23T01:59:11.519Z,33.50
2019-01-23T02:01:40.511Z,38.23
2019-01-23T02:04:09.380Z,39.27
2019-01-23T02:06:38.389Z,38.90
2019-01-23T02:09:09.153Z,35.93
2019-01-23T02:11:38.023Z,36.83
2019-01-23T02:14:06.859Z,39.00
2019-01-23T02:16:35.652Z,37.37
2019-01-23T02:19:04.729Z,36.03
2019-01-23T02:21:33.531Z,36.13
2019-01-23T02:24:02.362Z,36.73
2019-01-23T02:26:31.249Z,39.83
2019-01-23T02:29:00.207Z,40.03
2019-01-23T02:31:29.025Z,39.80
2019-01-23T02:33:57.861Z,37.67
2019-01-23T02:36:26.736Z,36.10
2019-01-23T02:38:55.549Z,36.67
2019-01-23T02:41:27.709Z,39.93
2019-01-23T02:44:01.432Z,40.50
2019-01-23T02:46:30.229Z,37.10
2019-01-23T02:48:59.179Z,36.47
2019-01-23T02:51:28.027Z,40.67
2019-01-23T02:53:56.815Z,36.83
2019-01-23T02:56:25.726Z,38.37
2019-01-23T02:58:54.550Z,38.37
2019-01-23T03:01:23.338Z,38.43
2019-01-23T03:03:52.298Z,43.33
2019-01-23T03:06:21.192Z,37.40
2019-01-23T03:08:49.993Z,42.60
2019-01-23T03:11:19.003Z,43.23
2019-01-23T03:13:47.780Z,41.20
2019-01-23T03:16:16.664Z,41.03
2019-01-23T03:18:45.457Z,38.07
2019-01-23T03:21:14.370Z,43.00
2019-01-23T03:23:43.216Z,40.83
2019-01-23T03:26:12.123Z,40.30
2019-01-23T03:28:40.940Z,47.83
2019-01-23T03:31:09.779Z,42.37
2019-01-23T03:33:38.826Z,44.47
2019-01-23T03:36:07.679Z,40.93
2019-01-23T03:38:36.585Z,35.43
2019-01-23T03:41:05.474Z,39.50
2019-01-23T03:43:34.266Z,42.67
2019-01-23T03:46:03.160Z,40.63
2019-01-23T03:48:32.046Z,42.17
2019-01-23T03:51:00.903Z,40.13
2019-01-23T03:53:29.855Z,43.13
2019-01-23T03:55:58.751Z,40.60
2019-01-23T03:58:27.636Z,43.37
2019-01-23T04:00:56.658Z,41.23
2019-01-23T04:03:25.571Z,43.27
2019-01-23T04:05:54.592Z,41.67
2019-01-23T04:08:23.661Z,42.23
2019-01-23T04:10:52.543Z,44.70
2019-01-23T04:13:21.370Z,43.77
2019-01-23T04:15:50.193Z,42.10
2019-01-23T04:18:19.041Z,44.40
2019-01-23T04:20:47.780Z,40.33
2019-01-23T04:23:16.508Z,45.47
2019-01-23T04:25:48.257Z,41.13
2019-01-23T04:28:16.989Z,44.07
2019-01-23T04:30:45.737Z,45.77
2019-01-23T04:33:17.335Z,49.47
2019-01-23T04:35:46.078Z,48.30
2019-01-23T04:38:14.872Z,48.43
2019-01-23T04:40:43.646Z,43.13
2019-01-23T04:43:12.575Z,48.73
2019-01-23T04:45:41.474Z,49.50
2019-01-23T04:48:10.721Z,45.27
2019-01-23T04:50:57.464Z,44.53
2019-01-23T04:53:36.827Z,46.43
2019-01-23T04:56:05.825Z,48.70
2019-01-23T04:58:36.851Z,46.17
2019-01-23T05:01:05.724Z,47.83
2019-01-23T05:03:34.442Z,47.37
2019-01-23T05:06:04.630Z,44.00
2019-01-23T05:08:33.497Z,46.97
2019-01-23T05:11:02.303Z,48.33
2019-01-23T05:13:31.064Z,50.20
2019-01-23T05:15:59.832Z,49.53
2019-01-23T05:18:28.565Z,49.97
2019-01-23T05:20:57.329Z,50.13
2019-01-23T05:23:26.060Z,50.17
2019-01-23T05:25:54.777Z,44.93
2019-01-23T05:28:23.557Z,45.33
2019-01-23T05:30:52.302Z,47.53
2019-01-23T05:33:21.186Z,46.60
2019-01-23T05:35:49.963Z,47.57
2019-01-23T05:38:18.709Z,49.57
2019-01-23T05:40:47.448Z,43.30
2019-01-23T05:43:16.263Z,48.63
2019-01-23T05:45:45.013Z,52.00
2019-01-23T05:48:13.918Z,46.23
2019-01-23T05:50:42.698Z,45.47
2019-01-23T05:53:11.565Z,49.07
2019-01-23T05:55:40.291Z,44.53
2019-01-23T05:58:10.185Z,54.03
2019-01-23T06:00:39.189Z,48.93
2019-01-23T06:03:08.942Z,46.90
2019-01-23T06:05:37.782Z,47.70
2019-01-23T06:08:07.239Z,43.73
2019-01-23T06:10:36.006Z,46.57
2019-01-23T06:13:04.777Z,51.00
2019-01-23T06:15:33.565Z,48.37
2019-01-23T06:18:02.529Z,45.43
2019-01-23T06:20:31.349Z,45.80
2019-01-23T06:23:00.189Z,53.70
2019-01-23T06:25:29.051Z,47.30
2019-01-23T06:27:57.999Z,48.70
2019-01-23T06:30:27.359Z,53.97
2019-01-23T06:32:56.265Z,48.73
2019-01-23T06:35:25.091Z,46.77
2019-01-23T06:37:53.953Z,47.97
2019-01-23T06:40:22.729Z,47.63
2019-01-23T06:42:51.553Z,46.30
2019-01-23T06:45:20.422Z,46.00
2019-01-23T06:47:49.790Z,52.13
2019-01-23T06:50:20.164Z,44.33
2019-01-23T06:52:49.013Z,45.67
2019-01-23T06:55:18.005Z,48.07
2019-01-23T06:57:46.854Z,50.57
2019-01-23T07:00:26.002Z,46.70
2019-01-23T07:02:55.002Z,41.80
2019-01-23T07:05:24.274Z,47.53
2019-01-23T07:07:53.216Z,47.67
2019-01-23T07:10:25.925Z,48.70
2019-01-23T07:12:54.785Z,45.10
2019-01-23T07:15:23.591Z,46.73
2019-01-23T07:17:52.349Z,45.63
2019-01-23T07:20:25.897Z,49.03
2019-01-23T07:22:55.068Z,43.87
2019-01-23T07:25:24.718Z,55.23
2019-01-23T07:27:53.493Z,43.93
2019-01-23T07:30:27.882Z,50.17
2019-01-23T07:32:56.754Z,61.20
2019-01-23T07:35:25.566Z,57.50
2019-01-23T07:37:55.968Z,54.15
2019-01-23T07:40:26.063Z,48.50
2019-01-23T07:42:54.887Z,55.53
2019-01-23T07:45:24.009Z,53.03
2019-01-23T07:47:52.750Z,54.60
2019-01-23T07:50:21.641Z,59.70
2019-01-23T07:52:50.661Z,58.57
2019-01-23T07:55:19.630Z,52.70
2019-01-23T07:57:48.517Z,53.93
2019-01-23T08:00:19.141Z,53.30
2019-01-23T08:02:48.018Z,51.23
2019-01-23T08:05:19.507Z,51.57
2019-01-23T08:07:49.001Z,57.93
2019-01-23T08:10:18.302Z,54.73
2019-01-23T08:12:47.253Z,51.67
2019-01-23T08:15:31.096Z,51.50
2019-01-23T08:17:59.975Z,58.13
2019-01-23T08:20:29.046Z,48.73
2019-01-23T08:22:58.109Z,52.27
2019-01-23T08:25:26.913Z,48.20
2019-01-23T08:27:55.824Z,53.87
2019-01-23T08:30:24.933Z,49.83
2019-01-23T08:32:53.777Z,48.27
2019-01-23T08:35:37.666Z,55.20
2019-01-23T08:38:06.366Z,55.57
2019-01-23T08:40:35.155Z,55.90
2019-01-23T08:43:04.069Z,48.70
2019-01-23T08:45:32.861Z,51.93
2019-01-23T08:48:01.697Z,58.90
2019-01-23T08:50:42.074Z,61.57
2019-01-23T08:53:10.845Z,68.30
2019-01-23T08:55:39.692Z,54.70
2019-01-23T08:58:08.618Z,55.10
2019-01-23T09:00:37.410Z,52.93
2019-01-23T09:03:06.790Z,53.43
2019-01-23T09:05:35.973Z,57.77
2019-01-23T09:08:05.854Z,49.07
2019-01-23T09:10:35.270Z,50.67
2019-01-23T09:13:04.307Z,58.40
2019-01-23T09:15:33.145Z,52.50
2019-01-23T09:18:02.030Z,55.40
2019-01-23T09:20:31.942Z,55.20
2019-01-23T09:23:00.703Z,50.30
2019-01-23T09:25:29.433Z,46.47
2019-01-23T09:27:58.243Z,50.50
2019-01-23T09:30:36.985Z,50.53
2019-01-23T09:33:26.512Z,54.30
2019-01-23T09:36:30.372Z,48.73
2019-01-23T09:39:20.609Z,49.43
2019-01-23T09:42:33.517Z,54.30
2019-01-23T09:45:46.658Z,53.03
2019-01-23T09:48:38.266Z,55.50
2019-01-23T09:52:19.149Z,49.13
2019-01-23T09:54:47.889Z,52.67
2019-01-23T09:57:16.749Z,45.80
2019-01-23T09:59:45.597Z,48.40
2019-01-23T10:02:14.385Z,51.37
2019-01-23T10:04:43.294Z,54.77
2019-01-23T10:07:12.214Z,48.00
2019-01-23T10:09:40.966Z,54.20
2019-01-23T10:12:09.778Z,46.13
2019-01-23T10:14:38.802Z,42.83
2019-01-23T10:17:07.832Z,44.17
2019-01-23T10:19:36.669Z,46.13
2019-01-23T10:22:05.825Z,47.97
2019-01-23T10:24:36.078Z,46.37
2019-01-23T10:27:05.226Z,41.37
2019-01-23T10:29:33.978Z,46.50
2019-01-23T10:32:02.730Z,48.93
2019-01-23T10:34:32.434Z,47.40
2019-01-23T10:37:01.557Z,46.33
2019-01-23T10:39:31.666Z,40.00
2019-01-23T10:42:00.733Z,43.27
2019-01-23T10:44:29.578Z,44.13
2019-01-23T10:46:58.413Z,41.77
2019-01-23T10:49:27.301Z,43.67
2019-01-23T10:51:56.101Z,40.50
2019-01-23T10:54:24.902Z,39.87
2019-01-23T10:56:53.894Z,43.40
2019-01-23T10:59:25.933Z,40.03
2019-01-23T11:01:54.771Z,36.73
2019-01-23T11:04:23.570Z,39.93
2019-01-23T11:06:52.414Z,39.03
2019-01-23T11:09:21.290Z,36.33
2019-01-23T11:11:50.031Z,38.27
2019-01-23T11:14:18.865Z,41.17
2019-01-23T11:16:47.689Z,40.27
2019-01-23T11:19:16.565Z,39.50
2019-01-23T11:21:45.461Z,35.60
2019-01-23T11:24:15.472Z,35.07
2019-01-23T11:26:44.370Z,34.70
2019-01-23T11:29:13.161Z,35.80
2019-01-23T11:31:41.878Z,31.87
2019-01-23T11:34:10.706Z,30.60
2019-01-23T11:36:39.562Z,28.97
2019-01-23T11:39:09.619Z,30.27
2019-01-23T11:41:38.445Z,33.43
2019-01-23T11:44:07.177Z,36.50
2019-01-23T11:46:36.028Z,32.97
2019-01-23T11:49:07.613Z,33.43
2019-01-23T11:51:36.450Z,33.87
2019-01-23T11:54:05.645Z,30.37
2019-01-23T11:56:34.416Z,33.53
2019-01-23T11:59:07.872Z,35.83
2019-01-23T12:01:36.765Z,34.73
2019-01-23T12:04:05.690Z,31.97
2019-01-23T12:06:34.404Z,33.57
2019-01-23T12:09:03.573Z,32.67
2019-01-23T12:11:32.317Z,30.70
2019-01-23T12:14:01.167Z,31.67
2019-01-23T12:16:29.999Z,35.27
2019-01-23T12:18:58.791Z,38.37
2019-01-23T12:21:27.582Z,37.43
2019-01-23T12:24:00.560Z,36.80
2019-01-23T12:26:29.365Z,39.13
2019-01-23T12:28:58.453Z,32.13
2019-01-23T12:31:27.161Z,31.97
2019-01-23T12:33:55.945Z,30.73
2019-01-23T12:36:26.498Z,30.63
2019-01-23T12:38:55.218Z,31.60
2019-01-23T12:41:23.968Z,28.67
2019-01-23T12:43:52.765Z,31.53
2019-01-23T12:46:21.561Z,30.70
2019-01-23T12:48:50.510Z,30.10
2019-01-23T12:51:19.323Z,27.60
2019-01-23T12:53:48.154Z,30.63
2019-01-23T12:56:19.702Z,26.77
2019-01-23T12:58:48.513Z,30.27
2019-01-23T13:01:17.547Z,27.57
2019-01-23T13:03:46.590Z,27.87
2019-01-23T13:06:15.661Z,29.93
2019-01-23T13:08:44.373Z,29.60
2019-01-23T13:11:13.224Z,31.47
2019-01-23T13:13:41.956Z,29.87
2019-01-23T13:16:13.763Z,29.50
2019-01-23T13:18:42.549Z,33.50
2019-01-23T13:21:11.365Z,32.63
2019-01-23T13:23:40.250Z,30.77
2019-01-23T13:26:09.073Z,34.40
2019-01-23T13:28:37.889Z,34.07
2019-01-23T13:31:06.621Z,33.30
2019-01-23T13:33:35.338Z,37.00
2019-01-23T13:36:04.281Z,35.53
2019-01-23T13:38:33.033Z,36.23
2019-01-23T13:41:01.876Z,34.23
2019-01-23T13:43:30.587Z,33.10
2019-01-23T13:45:59.451Z,33.63
2019-01-23T13:48:28.265Z,34.33
2019-01-23T13:50:56.996Z,27.73
2019-01-23T13:53:25.746Z,32.80
2019-01-23T13:55:54.598Z,32.70
2019-01-23T13:58:23.318Z,35.10
2019-01-23T14:00:52.078Z,32.70
2019-01-23T14:03:21.150Z,30.97
2019-01-23T14:05:49.960Z,27.43
2019-01-23T14:08:18.667Z,27.93
2019-01-23T14:10:47.516Z,31.57
2019-01-23T14:13:18.661Z,30.10
2019-01-23T14:15:47.489Z,26.70
2019-01-23T14:18:19.897Z,28.87
2019-01-23T14:20:48.850Z,28.27
2019-01-23T14:23:17.884Z,29.23
2019-01-23T14:25:46.641Z,31.27
2019-01-23T14:28:15.405Z,25.87
2019-01-23T14:30:47.360Z,30.70
2019-01-23T14:33:16.091Z,28.80
2019-01-23T14:35:46.006Z,28.33
2019-01-23T14:38:14.940Z,29.40
2019-01-23T14:40:43.773Z,29.63
2019-01-23T14:43:12.774Z,27.83
2019-01-23T14:45:41.659Z,27.10
2019-01-23T14:48:10.378Z,32.30
2019-01-23T14:50:39.110Z,32.37
2019-01-23T14:53:07.928Z,27.23
2019-01-23T14:55:36.678Z,34.13
2019-01-23T14:58:05.661Z,32.42
2019-01-23T15:00:39.515Z,36.35
2019-01-23T15:03:08.372Z,28.63
2019-01-23T15:05:37.180Z,27.60
2019-01-23T15:08:06.068Z,27.10
2019-01-23T15:10:34.957Z,29.53
2019-01-23T15:13:04.585Z,30.20
2019-01-23T15:15:33.474Z,33.93
2019-01-23T15:18:02.221Z,33.10
2019-01-23T15:20:33.897Z,34.03
2019-01-23T15:23:02.705Z,33.03
2019-01-23T15:25:33.530Z,32.93
2019-01-23T15:28:02.341Z,35.77
2019-01-23T15:30:31.159Z,33.50
2019-01-23T15:32:59.965Z,38.73
2019-01-23T15:35:28.768Z,34.30
2019-01-23T15:37:57.741Z,35.43
2019-01-23T15:40:29.269Z,36.57
2019-01-23T15:42:58.089Z,36.10
2019-01-23T15:45:27.098Z,36.97
2019-01-23T15:47:58.781Z,39.43
2019-01-23T15:50:27.755Z,34.77
2019-01-23T15:52:56.613Z,35.50
2019-01-23T15:55:25.738Z,38.93
2019-01-23T15:57:54.541Z,46.37
2019-01-23T16:00:25.489Z,38.37
2019-01-23T16:02:54.706Z,38.40
2019-01-23T16:05:23.770Z,36.90
2019-01-23T16:07:52.530Z,35.10
2019-01-23T16:10:23.027Z,34.57
2019-01-23T16:12:51.834Z,34.43
2019-01-23T16:15:27.958Z,43.90
2019-01-23T16:17:57.572Z,38.93
2019-01-23T16:20:26.797Z,42.10
2019-01-23T16:22:55.845Z,36.77
2019-01-23T16:25:24.715Z,41.63
2019-01-23T16:27:53.496Z,41.73
2019-01-23T16:30:31.220Z,37.40
2019-01-23T16:33:00.022Z,44.30
2019-01-23T16:35:28.755Z,44.27
2019-01-23T16:37:57.593Z,38.37
2019-01-23T16:40:26.318Z,44.93
2019-01-23T16:42:55.171Z,46.63
2019-01-23T16:45:25.182Z,45.60
2019-01-23T16:47:53.952Z,45.63
2019-01-23T16:50:23.581Z,48.43
2019-01-23T16:52:53.927Z,51.33
2019-01-23T16:55:23.398Z,53.90
2019-01-23T16:57:52.320Z,50.03
2019-01-23T17:00:23.445Z,52.53
2019-01-23T17:02:53.292Z,47.27
2019-01-23T17:05:24.717Z,57.03
2019-01-23T17:07:53.702Z,50.33
2019-01-23T17:10:23.626Z,48.77
2019-01-23T17:12:52.490Z,55.33
2019-01-23T17:15:21.386Z,55.30
2019-01-23T17:17:50.247Z,54.20
2019-01-23T17:20:22.161Z,75.13
2019-01-23T17:22:50.918Z,52.50
2019-01-23T17:25:19.747Z,57.13
2019-01-23T17:27:48.635Z,53.13
2019-01-23T17:30:17.962Z,56.87
2019-01-23T17:32:46.877Z,54.97
2019-01-23T17:35:17.593Z,59.53
2019-01-23T17:37:46.445Z,57.03
2019-01-23T17:40:17.460Z,56.10
2019-01-23T17:42:46.384Z,57.60
2019-01-23T17:45:17.937Z,59.53
2019-01-23T17:47:46.841Z,61.80
2019-01-23T17:50:17.763Z,54.57
2019-01-23T17:52:46.583Z,50.77
2019-01-23T17:55:21.378Z,58.77
2019-01-23T17:57:50.103Z,52.20
2019-01-23T18:00:23.163Z,57.43
2019-01-23T18:02:52.760Z,62.13
2019-01-23T18:05:21.972Z,64.93
2019-01-23T18:07:55.396Z,59.37
2019-01-23T18:10:24.682Z,57.03
2019-01-23T18:12:53.493Z,52.20
2019-01-23T18:15:23.666Z,55.07
2019-01-23T18:17:52.600Z,55.07
2019-01-23T18:20:23.819Z,56.37
2019-01-23T18:22:52.685Z,60.70
2019-01-23T18:25:21.503Z,59.27
2019-01-23T18:27:50.505Z,57.83
2019-01-23T18:30:43.078Z,52.60
2019-01-23T18:33:14.821Z,55.17
2019-01-23T18:36:19.994Z,55.50
2019-01-23T18:39:21.790Z,50.77
2019-01-23T18:42:31.401Z,50.70
2019-01-23T18:45:47.453Z,45.23
2019-01-23T18:48:52.473Z,49.37
2019-01-23T18:51:39.313Z,46.23
2019-01-23T18:54:08.215Z,48.03
2019-01-23T18:56:37.750Z,43.90
2019-01-23T18:59:06.663Z,46.17
2019-01-23T19:01:35.510Z,47.90
2019-01-23T19:04:04.628Z,43.50
2019-01-23T19:06:33.365Z,46.87
2019-01-23T19:09:02.155Z,44.47
2019-01-23T19:11:30.925Z,51.30
2019-01-23T19:13:59.657Z,46.33
2019-01-23T19:16:28.665Z,46.17
2019-01-23T19:18:57.381Z,49.67
2019-01-23T19:21:26.211Z,49.30
2019-01-23T19:23:54.992Z,43.63
2019-01-23T19:26:23.717Z,48.50
2019-01-23T19:28:52.461Z,48.57
2019-01-23T19:31:21.194Z,52.90
2019-01-23T19:33:50.064Z,50.63
2019-01-23T19:36:18.955Z,50.47
2019-01-23T19:38:47.745Z,48.27
2019-01-23T19:41:20.376Z,44.90
2019-01-23T19:43:47.257Z,48.30
2019-01-23T19:46:16.205Z,49.90
2019-01-23T19:48:45.168Z,51.23
2019-01-23T19:51:14.013Z,56.70
2019-01-23T19:53:42.797Z,51.80
2019-01-23T19:56:11.860Z,53.27
2019-01-23T19:58:40.735Z,49.13
2019-01-23T20:01:09.543Z,50.40
2019-01-23T20:03:38.302Z,47.43
2019-01-23T20:06:07.143Z,55.70
2019-01-23T20:08:35.945Z,53.03
2019-01-23T20:11:04.809Z,57.20
2019-01-23T20:13:33.626Z,58.67
2019-01-23T20:16:02.447Z,55.17
2019-01-23T20:18:31.253Z,56.03
2019-01-23T20:20:59.993Z,52.10
2019-01-23T20:23:28.723Z,56.17
2019-01-23T20:25:57.482Z,53.17
2019-01-23T20:28:26.198Z,54.63
2019-01-23T20:30:54.932Z,52.87
2019-01-23T20:33:27.863Z,49.40
2019-01-23T20:35:54.144Z,56.53
2019-01-23T20:38:22.913Z,51.80
2019-01-23T20:40:51.609Z,50.33
2019-01-23T20:43:20.583Z,58.33
2019-01-23T20:45:49.438Z,53.37
2019-01-23T20:48:18.161Z,54.53
2019-01-23T20:50:46.932Z,54.60
2019-01-23T20:53:18.798Z,56.03
2019-01-23T20:55:47.626Z,59.70
2019-01-23T20:58:16.465Z,63.07
2019-01-23T21:00:45.203Z,58.27
2019-01-23T21:03:13.950Z,55.87
2019-01-23T21:05:42.769Z,53.33
2019-01-23T21:08:11.571Z,59.43
2019-01-23T21:10:40.319Z,54.57
2019-01-23T21:13:09.129Z,55.90
2019-01-23T21:15:38.789Z,58.10
2019-01-23T21:18:07.646Z,67.90
2019-01-23T21:20:38.785Z,57.90
2019-01-23T21:23:08.626Z,60.43
2019-01-23T21:25:37.440Z,57.10
2019-01-23T21:28:07.821Z,61.17
2019-01-23T21:30:36.635Z,60.93
2019-01-23T21:33:08.146Z,57.37
2019-01-23T21:35:37.054Z,52.13
2019-01-23T21:38:06.038Z,59.73
2019-01-23T21:40:34.909Z,55.57
2019-01-23T21:43:04.294Z,59.53
2019-01-23T21:45:35.313Z,57.27
2019-01-23T21:48:04.511Z,57.67
2019-01-23T21:50:35.165Z,56.83
2019-01-23T21:53:04.489Z,62.67
2019-01-23T21:55:34.626Z,62.57
2019-01-23T21:58:03.734Z,56.40
2019-01-23T22:00:44.298Z,54.40
2019-01-23T22:03:13.207Z,61.90
2019-01-23T22:05:42.130Z,52.53
2019-01-23T22:08:11.773Z,53.37
2019-01-23T22:10:40.593Z,59.17
2019-01-23T22:13:09.464Z,55.73
2019-01-23T22:15:38.290Z,60.43
2019-01-23T22:18:08.641Z,56.70
2019-01-23T22:20:37.741Z,60.10
2019-01-23T22:23:06.857Z,57.80
2019-01-23T22:25:37.054Z,57.53
2019-01-23T22:28:06.076Z,55.83
2019-01-23T22:30:35.005Z,56.07
2019-01-23T22:33:04.148Z,54.10
2019-01-23T22:35:32.953Z,53.07
2019-01-23T22:38:01.711Z,53.70
2019-01-23T22:40:30.493Z,53.00
2019-01-23T22:42:59.333Z,55.20
2019-01-23T22:45:28.137Z,51.83
2019-01-23T22:47:56.961Z,55.13
2019-01-23T22:50:27.500Z,53.83
2019-01-23T22:52:56.345Z,62.57
2019-01-23T22:55:25.161Z,54.33
2019-01-23T22:57:53.965Z,56.13
2019-01-23T23:00:47.605Z,53.60
2019-01-23T23:03:19.029Z,49.43
2019-01-23T23:05:47.973Z,55.83
2019-01-23T23:08:16.786Z,59.33
2019-01-23T23:10:45.509Z,59.70
2019-01-23T23:13:14.869Z,60.83
2019-01-23T23:15:45.021Z,52.30
2019-01-23T23:18:14.016Z,58.43
2019-01-23T23:20:42.865Z,57.80
2019-01-23T23:23:11.733Z,53.97
2019-01-23T23:25:40.533Z,56.87
2019-01-23T23:28:09.245Z,54.37
2019-01-23T23:30:38.066Z,56.87
2019-01-23T23:33:07.142Z,53.90
2019-01-23T23:35:35.913Z,60.27
2019-01-23T23:38:05.119Z,58.83
2019-01-23T23:40:33.918Z,54.57
2019-01-23T23:43:02.721Z,59.60
2019-01-23T23:45:31.466Z,57.37
2019-01-23T23:48:00.213Z,52.40
2019-01-23T23:50:28.950Z,57.83
2019-01-23T23:52:57.778Z,60.07
2019-01-23T23:55:26.574Z,54.30
2019-01-23T23:57:55.372Z,55.10
